Terminal Aerodrome Forecast
Issued by NWS Cleveland, OH

Home | Current Version | Previous Version | Text Only | Print | Product List | Glossary On
Versions: 1 2 3 4 5 6 7 8 9 10 11 12 13 14 15 16 17 18 19 20 21 22
000
FTUS41 KCLE 271700
TAFYNG
TAF
KYNG 271731Z 2718/2818 31012KT 6SM -SN BKN025 OVC040
      TEMPO 2718/2721 3SM -SN
     FM272300 34011KT P6SM BKN030 OVC040
      TEMPO 2802/2806 SCT030 OVC040
     FM281700 33010KT P6SM SCT035=

USA.gov is the U.S. government's official web portal to all federal, state and local government web resources and services.